sensor_id;sensor_type;location;lat;lon;timestamp;pressure;altitude;pressure_sealevel;temperature;humidity
79703;BME280;69172;52.352;5.006;2023-04-25T00:02:07;101140.25;;;6.19;74.12
79703;BME280;69172;52.352;5.006;2023-04-25T00:04:33;101144.69;;;6.21;75.60
79703;BME280;69172;52.352;5.006;2023-04-25T00:06:59;101152.47;;;6.23;73.79
79703;BME280;69172;52.352;5.006;2023-04-25T00:09:28;101142.38;;;6.24;74.26
79703;BME280;69172;52.352;5.006;2023-04-25T00:11:53;101137.13;;;6.23;74.49
79703;BME280;69172;52.352;5.006;2023-04-25T00:14:18;101147.34;;;6.23;74.49
79703;BME280;69172;52.352;5.006;2023-04-25T00:16:44;101150.56;;;6.20;74.40
79703;BME280;69172;52.352;5.006;2023-04-25T00:19:09;101142.47;;;6.14;75.70
79703;BME280;69172;52.352;5.006;2023-04-25T00:21:35;101153.00;;;6.19;74.16
79703;BME280;69172;52.352;5.006;2023-04-25T00:24:03;101149.47;;;6.17;73.47
79703;BME280;69172;52.352;5.006;2023-04-25T00:26:28;101150.69;;;6.22;74.22
79703;BME280;69172;52.352;5.006;2023-04-25T00:28:53;101152.13;;;6.18;73.74
79703;BME280;69172;52.352;5.006;2023-04-25T00:31:19;101156.31;;;6.18;73.21
79703;BME280;69172;52.352;5.006;2023-04-25T00:33:44;101160.31;;;6.14;73.52
79703;BME280;69172;52.352;5.006;2023-04-25T00:36:10;101150.97;;;6.15;74.13
79703;BME280;69172;52.352;5.006;2023-04-25T00:38:36;101149.66;;;6.20;73.85
79703;BME280;69172;52.352;5.006;2023-04-25T00:41:05;101158.53;;;6.13;74.16
79703;BME280;69172;52.352;5.006;2023-04-25T00:43:32;101160.94;;;6.12;74.82
79703;BME280;69172;52.352;5.006;2023-04-25T00:45:59;101161.34;;;6.06;74.69
79703;BME280;69172;52.352;5.006;2023-04-25T00:48:25;101169.03;;;6.06;75.59
79703;BME280;69172;52.352;5.006;2023-04-25T00:50:55;101166.38;;;6.05;74.86
79703;BME280;69172;52.352;5.006;2023-04-25T00:53:23;101163.81;;;6.05;75.95
79703;BME280;69172;52.352;5.006;2023-04-25T00:55:49;101163.47;;;6.00;76.55
79703;BME280;69172;52.352;5.006;2023-04-25T00:58:18;101167.91;;;6.03;75.00
79703;BME280;69172;52.352;5.006;2023-04-25T01:00:48;101165.88;;;5.98;75.56
79703;BME280;69172;52.352;5.006;2023-04-25T01:03:16;101162.31;;;5.96;74.80
79703;BME280;69172;52.352;5.006;2023-04-25T01:05:43;101169.97;;;5.96;74.43
79703;BME280;69172;52.352;5.006;2023-04-25T01:08:09;101161.19;;;5.93;75.56
79703;BME280;69172;52.352;5.006;2023-04-25T01:10:35;101164.13;;;5.87;74.45
79703;BME280;69172;52.352;5.006;2023-04-25T01:13:00;101163.72;;;5.93;74.41
79703;BME280;69172;52.352;5.006;2023-04-25T01:15:26;101169.25;;;5.87;75.06
79703;BME280;69172;52.352;5.006;2023-04-25T01:17:51;101169.38;;;5.89;75.28
79703;BME280;69172;52.352;5.006;2023-04-25T01:20:20;101172.59;;;5.86;76.02
79703;BME280;69172;52.352;5.006;2023-04-25T01:22:46;101162.84;;;5.82;74.93
79703;BME280;69172;52.352;5.006;2023-04-25T01:25:12;101172.44;;;5.85;75.41
79703;BME280;69172;52.352;5.006;2023-04-25T01:27:38;101178.94;;;5.91;75.25
79703;BME280;69172;52.352;5.006;2023-04-25T01:30:04;101181.50;;;5.91;74.80
79703;BME280;69172;52.352;5.006;2023-04-25T01:32:30;101185.03;;;5.93;74.12
79703;BME280;69172;52.352;5.006;2023-04-25T01:35:07;101188.25;;;5.91;74.60
79703;BME280;69172;52.352;5.006;2023-04-25T01:37:43;101173.84;;;5.91;74.08
79703;BME280;69172;52.352;5.006;2023-04-25T01:40:10;101187.34;;;5.90;74.49
79703;BME280;69172;52.352;5.006;2023-04-25T01:42:39;101179.59;;;5.89;74.75
79703;BME280;69172;52.352;5.006;2023-04-25T01:45:05;101184.94;;;5.92;73.61
79703;BME280;69172;52.352;5.006;2023-04-25T01:47:32;101186.34;;;5.88;74.38
79703;BME280;69172;52.352;5.006;2023-04-25T01:49:57;101181.72;;;5.84;73.70
79703;BME280;69172;52.352;5.006;2023-04-25T01:52:22;101197.56;;;5.90;73.84
79703;BME280;69172;52.352;5.006;2023-04-25T01:54:49;101192.22;;;5.87;73.52
79703;BME280;69172;52.352;5.006;2023-04-25T01:57:15;101191.56;;;5.90;73.54
79703;BME280;69172;52.352;5.006;2023-04-25T01:59:42;101197.56;;;5.90;73.49
79703;BME280;69172;52.352;5.006;2023-04-25T02:02:08;101204.47;;;5.91;72.36
79703;BME280;69172;52.352;5.006;2023-04-25T02:04:33;101196.81;;;5.91;73.89
79703;BME280;69172;52.352;5.006;2023-04-25T02:06:58;101195.56;;;5.86;73.54
79703;BME280;69172;52.352;5.006;2023-04-25T02:09:25;101198.22;;;5.88;73.69
79703;BME280;69172;52.352;5.006;2023-04-25T02:11:50;101204.97;;;5.87;73.50
79703;BME280;69172;52.352;5.006;2023-04-25T02:14:16;101203.47;;;5.89;72.71
79703;BME280;69172;52.352;5.006;2023-04-25T02:16:41;101201.78;;;5.90;73.78
79703;BME280;69172;52.352;5.006;2023-04-25T02:19:09;101194.34;;;5.93;72.45
79703;BME280;69172;52.352;5.006;2023-04-25T02:21:35;101204.72;;;5.94;72.53
79703;BME280;69172;52.352;5.006;2023-04-25T02:24:01;101200.50;;;5.95;73.04
79703;BME280;69172;52.352;5.006;2023-04-25T02:26:27;101196.81;;;5.91;72.32
79703;BME280;69172;52.352;5.006;2023-04-25T02:28:52;101197.69;;;5.92;73.58
79703;BME280;69172;52.352;5.006;2023-04-25T02:31:17;101197.81;;;5.93;72.09
79703;BME280;69172;52.352;5.006;2023-04-25T02:33:43;101211.56;;;5.95;72.84
79703;BME280;69172;52.352;5.006;2023-04-25T02:36:09;101209.91;;;5.96;72.39
79703;BME280;69172;52.352;5.006;2023-04-25T02:38:34;101208.25;;;5.96;72.65
79703;BME280;69172;52.352;5.006;2023-04-25T02:40:59;101221.69;;;5.94;72.29
79703;BME280;69172;52.352;5.006;2023-04-25T02:43:25;101237.00;;;5.94;71.17
79703;BME280;69172;52.352;5.006;2023-04-25T02:45:51;101224.63;;;5.88;71.06
79703;BME280;69172;52.352;5.006;2023-04-25T02:48:16;101227.19;;;5.88;71.30
79703;BME280;69172;52.352;5.006;2023-04-25T02:50:42;101223.50;;;5.85;70.76
79703;BME280;69172;52.352;5.006;2023-04-25T02:53:07;101235.50;;;5.86;71.10
79703;BME280;69172;52.352;5.006;2023-04-25T02:55:33;101222.56;;;5.84;70.88
79703;BME280;69172;52.352;5.006;2023-04-25T02:57:58;101225.66;;;5.80;70.83
79703;BME280;69172;52.352;5.006;2023-04-25T03:00:24;101214.53;;;5.80;71.17
79703;BME280;69172;52.352;5.006;2023-04-25T03:02:49;101219.78;;;5.81;70.58
79703;BME280;69172;52.352;5.006;2023-04-25T03:05:14;101217.84;;;5.79;69.66
79703;BME280;69172;52.352;5.006;2023-04-25T03:07:40;101215.44;;;5.80;70.45
79703;BME280;69172;52.352;5.006;2023-04-25T03:10:08;101221.06;;;5.76;69.81
79703;BME280;69172;52.352;5.006;2023-04-25T03:12:34;101219.16;;;5.74;70.13
79703;BME280;69172;52.352;5.006;2023-04-25T03:14:59;101220.94;;;5.75;68.63
79703;BME280;69172;52.352;5.006;2023-04-25T03:17:25;101226.44;;;5.89;67.48
79703;BME280;69172;52.352;5.006;2023-04-25T03:19:50;101233.19;;;5.89;67.81
79703;BME280;69172;52.352;5.006;2023-04-25T03:22:15;101233.94;;;5.88;67.25
79703;BME280;69172;52.352;5.006;2023-04-25T03:24:41;101248.50;;;5.89;68.10
79703;BME280;69172;52.352;5.006;2023-04-25T03:27:06;101237.28;;;5.87;70.04
79703;BME280;69172;52.352;5.006;2023-04-25T03:29:31;101238.19;;;5.67;71.14
79703;BME280;69172;52.352;5.006;2023-04-25T03:31:57;101252.84;;;5.70;74.25
79703;BME280;69172;52.352;5.006;2023-04-25T03:34:22;101253.28;;;5.54;73.64
79703;BME280;69172;52.352;5.006;2023-04-25T03:36:48;101249.97;;;5.45;75.49
79703;BME280;69172;52.352;5.006;2023-04-25T03:39:14;101252.00;;;5.39;76.10
79703;BME280;69172;52.352;5.006;2023-04-25T03:41:39;101253.19;;;5.32;76.05
79703;BME280;69172;52.352;5.006;2023-04-25T03:44:05;101250.75;;;5.34;77.69
79703;BME280;69172;52.352;5.006;2023-04-25T03:46:30;101245.13;;;5.28;77.84
79703;BME280;69172;52.352;5.006;2023-04-25T03:48:56;101252.25;;;5.22;77.38
79703;BME280;69172;52.352;5.006;2023-04-25T03:51:21;101247.16;;;5.22;78.21
79703;BME280;69172;52.352;5.006;2023-04-25T03:53:47;101251.50;;;5.23;77.01
79703;BME280;69172;52.352;5.006;2023-04-25T03:56:13;101248.31;;;5.25;76.90
79703;BME280;69172;52.352;5.006;2023-04-25T03:58:38;101246.56;;;5.24;76.35
79703;BME280;69172;52.352;5.006;2023-04-25T04:01:04;101255.84;;;5.24;76.81
79703;BME280;69172;52.352;5.006;2023-04-25T04:03:33;101260.06;;;5.23;77.68
79703;BME280;69172;52.352;5.006;2023-04-25T04:06:00;101257.13;;;5.09;74.86
79703;BME280;69172;52.352;5.006;2023-04-25T04:08:25;101255.22;;;5.06;73.85
79703;BME280;69172;52.352;5.006;2023-04-25T04:10:51;101264.00;;;5.10;72.87
79703;BME280;69172;52.352;5.006;2023-04-25T04:13:16;101264.00;;;5.10;72.89
79703;BME280;69172;52.352;5.006;2023-04-25T04:15:41;101269.84;;;5.09;73.07
79703;BME280;69172;52.352;5.006;2023-04-25T04:18:07;101274.97;;;5.09;72.41
79703;BME280;69172;52.352;5.006;2023-04-25T04:20:32;101283.88;;;5.14;73.35
79703;BME280;69172;52.352;5.006;2023-04-25T04:22:57;101308.50;;;5.23;73.65
79703;BME280;69172;52.352;5.006;2023-04-25T04:25:23;101303.25;;;5.22;74.92
79703;BME280;69172;52.352;5.006;2023-04-25T04:27:50;101293.59;;;5.18;73.96
79703;BME280;69172;52.352;5.006;2023-04-25T04:30:19;101285.94;;;5.08;73.13
79703;BME280;69172;52.352;5.006;2023-04-25T04:32:45;101286.81;;;5.08;74.79
79703;BME280;69172;52.352;5.006;2023-04-25T04:35:10;101285.41;;;5.02;72.70
79703;BME280;69172;52.352;5.006;2023-04-25T04:37:36;101287.69;;;4.99;73.18
79703;BME280;69172;52.352;5.006;2023-04-25T04:40:02;101296.25;;;4.99;73.87
79703;BME280;69172;52.352;5.006;2023-04-25T04:42:30;101288.19;;;4.95;73.57
79703;BME280;69172;52.352;5.006;2023-04-25T04:44:55;101285.66;;;4.95;73.88
79703;BME280;69172;52.352;5.006;2023-04-25T04:47:20;101301.47;;;5.01;72.77
79703;BME280;69172;52.352;5.006;2023-04-25T04:49:48;101302.75;;;5.06;72.98
79703;BME280;69172;52.352;5.006;2023-04-25T04:52:14;101298.78;;;5.09;72.56
79703;BME280;69172;52.352;5.006;2023-04-25T04:54:39;101296.25;;;5.09;72.42
79703;BME280;69172;52.352;5.006;2023-04-25T04:57:05;101303.66;;;5.16;72.09
79703;BME280;69172;52.352;5.006;2023-04-25T04:59:31;101307.72;;;5.14;73.24
79703;BME280;69172;52.352;5.006;2023-04-25T05:01:56;101304.94;;;5.21;72.76
79703;BME280;69172;52.352;5.006;2023-04-25T05:04:21;101304.94;;;5.31;72.11
79703;BME280;69172;52.352;5.006;2023-04-25T05:06:47;101307.84;;;5.36;71.88
79703;BME280;69172;52.352;5.006;2023-04-25T05:09:12;101304.91;;;5.41;71.70
79703;BME280;69172;52.352;5.006;2023-04-25T05:11:37;101314.00;;;5.48;71.96
79703;BME280;69172;52.352;5.006;2023-04-25T05:14:03;101313.47;;;5.52;73.14
79703;BME280;69172;52.352;5.006;2023-04-25T05:16:28;101313.34;;;5.51;73.85
79703;BME280;69172;52.352;5.006;2023-04-25T05:18:53;101321.00;;;5.51;73.09
79703;BME280;69172;52.352;5.006;2023-04-25T05:21:19;101325.94;;;5.49;73.49
79703;BME280;69172;52.352;5.006;2023-04-25T05:23:44;101329.28;;;5.48;73.79
79703;BME280;69172;52.352;5.006;2023-04-25T05:26:10;101322.53;;;5.49;73.87
79703;BME280;69172;52.352;5.006;2023-04-25T05:28:39;101326.75;;;5.48;73.78
79703;BME280;69172;52.352;5.006;2023-04-25T05:31:06;101326.84;;;5.50;74.57
79703;BME280;69172;52.352;5.006;2023-04-25T05:33:31;101336.03;;;5.48;74.32
79703;BME280;69172;52.352;5.006;2023-04-25T05:35:57;101334.25;;;5.47;74.54
79703;BME280;69172;52.352;5.006;2023-04-25T05:38:22;101336.16;;;5.49;74.47
79703;BME280;69172;52.352;5.006;2023-04-25T05:40:55;101344.06;;;5.52;75.04
79703;BME280;69172;52.352;5.006;2023-04-25T05:43:20;101345.97;;;5.55;76.08
79703;BME280;69172;52.352;5.006;2023-04-25T05:45:46;101351.84;;;5.64;74.02
79703;BME280;69172;52.352;5.006;2023-04-25T05:48:12;101356.06;;;5.63;73.95
79703;BME280;69172;52.352;5.006;2023-04-25T05:50:38;101353.00;;;5.67;73.03
79703;BME280;69172;52.352;5.006;2023-04-25T05:53:03;101358.47;;;5.72;72.86
79703;BME280;69172;52.352;5.006;2023-04-25T05:55:30;101369.59;;;5.72;73.20
79703;BME280;69172;52.352;5.006;2023-04-25T05:57:56;101363.84;;;5.75;73.20
79703;BME280;69172;52.352;5.006;2023-04-25T06:00:21;101368.41;;;5.79;73.23
79703;BME280;69172;52.352;5.006;2023-04-25T06:02:47;101374.06;;;5.85;72.88
79703;BME280;69172;52.352;5.006;2023-04-25T06:05:13;101372.13;;;5.92;73.37
79703;BME280;69172;52.352;5.006;2023-04-25T06:07:39;101381.56;;;6.04;73.81
79703;BME280;69172;52.352;5.006;2023-04-25T06:10:06;101377.50;;;6.06;73.09
79703;BME280;69172;52.352;5.006;2023-04-25T06:12:34;101381.06;;;6.08;72.29
79703;BME280;69172;52.352;5.006;2023-04-25T06:15:00;101379.53;;;6.10;72.19
79703;BME280;69172;52.352;5.006;2023-04-25T06:17:38;101382.59;;;6.16;72.01
79703;BME280;69172;52.352;5.006;2023-04-25T06:20:10;101383.44;;;6.26;72.72
79703;BME280;69172;52.352;5.006;2023-04-25T06:22:42;101392.25;;;6.30;71.23
79703;BME280;69172;52.352;5.006;2023-04-25T06:25:07;101393.28;;;6.32;71.88
79703;BME280;69172;52.352;5.006;2023-04-25T06:27:34;101392.53;;;6.23;71.38
79703;BME280;69172;52.352;5.006;2023-04-25T06:30:01;101392.22;;;6.40;71.56
79703;BME280;69172;52.352;5.006;2023-04-25T06:32:29;101396.84;;;6.44;68.59
79703;BME280;69172;52.352;5.006;2023-04-25T06:35:03;101394.88;;;6.51;69.04
79703;BME280;69172;52.352;5.006;2023-04-25T06:37:29;101398.81;;;6.58;68.64
79703;BME280;69172;52.352;5.006;2023-04-25T06:39:54;101409.66;;;6.66;67.02
79703;BME280;69172;52.352;5.006;2023-04-25T06:42:19;101412.22;;;6.66;67.43
79703;BME280;69172;52.352;5.006;2023-04-25T06:44:45;101401.94;;;6.76;68.26
79703;BME280;69172;52.352;5.006;2023-04-25T06:47:10;101411.88;;;6.83;67.22
79703;BME280;69172;52.352;5.006;2023-04-25T06:49:35;101416.50;;;6.77;66.87
79703;BME280;69172;52.352;5.006;2023-04-25T06:52:01;101419.53;;;6.83;66.13
79703;BME280;69172;52.352;5.006;2023-04-25T06:54:26;101423.53;;;6.79;67.04
79703;BME280;69172;52.352;5.006;2023-04-25T06:56:54;101415.56;;;6.86;66.60
79703;BME280;69172;52.352;5.006;2023-04-25T06:59:20;101411.75;;;6.81;66.14
79703;BME280;69172;52.352;5.006;2023-04-25T07:01:46;101419.69;;;6.84;65.80
79703;BME280;69172;52.352;5.006;2023-04-25T07:04:11;101418.47;;;6.91;65.89
79703;BME280;69172;52.352;5.006;2023-04-25T07:06:37;101416.16;;;6.94;64.41
79703;BME280;69172;52.352;5.006;2023-04-25T07:09:09;101425.38;;;6.92;64.71
79703;BME280;69172;52.352;5.006;2023-04-25T07:11:35;101424.13;;;6.87;63.27
79703;BME280;69172;52.352;5.006;2023-04-25T07:14:01;101429.34;;;6.88;63.73
79703;BME280;69172;52.352;5.006;2023-04-25T07:16:27;101432.72;;;6.87;63.31
79703;BME280;69172;52.352;5.006;2023-04-25T07:18:52;101433.50;;;7.08;63.25
79703;BME280;69172;52.352;5.006;2023-04-25T07:21:17;101436.00;;;7.18;63.75
79703;BME280;69172;52.352;5.006;2023-04-25T07:23:43;101431.59;;;7.27;62.83
79703;BME280;69172;52.352;5.006;2023-04-25T07:26:08;101433.41;;;7.28;59.36
79703;BME280;69172;52.352;5.006;2023-04-25T07:28:34;101439.22;;;7.37;60.75
79703;BME280;69172;52.352;5.006;2023-04-25T07:30:59;101445.53;;;7.31;64.07
79703;BME280;69172;52.352;5.006;2023-04-25T07:33:25;101446.13;;;7.16;64.97
79703;BME280;69172;52.352;5.006;2023-04-25T07:35:50;101449.84;;;7.10;66.98
79703;BME280;69172;52.352;5.006;2023-04-25T07:38:15;101457.06;;;6.94;64.47
79703;BME280;69172;52.352;5.006;2023-04-25T07:40:41;101451.47;;;6.88;65.22
79703;BME280;69172;52.352;5.006;2023-04-25T07:43:06;101463.41;;;6.77;65.94
79703;BME280;69172;52.352;5.006;2023-04-25T07:45:32;101461.69;;;6.88;67.67
79703;BME280;69172;52.352;5.006;2023-04-25T07:47:57;101455.13;;;7.01;66.72
79703;BME280;69172;52.352;5.006;2023-04-25T07:50:22;101458.66;;;7.13;63.71
79703;BME280;69172;52.352;5.006;2023-04-25T07:52:48;101474.25;;;7.38;63.65
79703;BME280;69172;52.352;5.006;2023-04-25T07:55:13;101477.72;;;7.39;60.92
79703;BME280;69172;52.352;5.006;2023-04-25T07:57:38;101474.25;;;7.38;59.88
79703;BME280;69172;52.352;5.006;2023-04-25T08:00:12;101474.59;;;7.21;51.86
79703;BME280;69172;52.352;5.006;2023-04-25T08:02:37;101474.75;;;7.12;51.52
79703;BME280;69172;52.352;5.006;2023-04-25T08:05:03;101485.50;;;7.18;53.44
79703;BME280;69172;52.352;5.006;2023-04-25T08:07:28;101483.63;;;7.06;54.77
79703;BME280;69172;52.352;5.006;2023-04-25T08:09:54;101496.66;;;7.09;57.90
79703;BME280;69172;52.352;5.006;2023-04-25T08:12:20;101493.06;;;7.17;60.22
79703;BME280;69172;52.352;5.006;2023-04-25T08:14:45;101502.75;;;7.21;60.42
79703;BME280;69172;52.352;5.006;2023-04-25T08:17:10;101499.25;;;6.99;60.04
79703;BME280;69172;52.352;5.006;2023-04-25T08:19:36;101498.31;;;7.08;60.88
79703;BME280;69172;52.352;5.006;2023-04-25T08:22:01;101502.09;;;7.24;59.26
79703;BME280;69172;52.352;5.006;2023-04-25T08:24:27;101499.38;;;7.32;58.13
79703;BME280;69172;52.352;5.006;2023-04-25T08:26:52;101510.69;;;7.46;59.36
79703;BME280;69172;52.352;5.006;2023-04-25T08:29:18;101510.56;;;7.44;57.30
79703;BME280;69172;52.352;5.006;2023-04-25T08:31:43;101516.34;;;7.42;56.89
79703;BME280;69172;52.352;5.006;2023-04-25T08:34:08;101520.03;;;7.67;57.23
79703;BME280;69172;52.352;5.006;2023-04-25T08:36:34;101521.25;;;7.94;56.57
79703;BME280;69172;52.352;5.006;2023-04-25T08:39:00;101522.31;;;8.07;54.48
79703;BME280;69172;52.352;5.006;2023-04-25T08:41:26;101519.63;;;8.06;53.25
79703;BME280;69172;52.352;5.006;2023-04-25T08:43:53;101519.41;;;8.03;52.79
79703;BME280;69172;52.352;5.006;2023-04-25T08:46:19;101537.00;;;7.76;61.01
79703;BME280;69172;52.352;5.006;2023-04-25T08:48:45;101536.94;;;7.43;63.71
79703;BME280;69172;52.352;5.006;2023-04-25T08:51:15;101545.22;;;7.19;62.74
79703;BME280;69172;52.352;5.006;2023-04-25T08:53:41;101551.09;;;7.28;63.95
79703;BME280;69172;52.352;5.006;2023-04-25T08:56:08;101558.16;;;7.42;62.89
79703;BME280;69172;52.352;5.006;2023-04-25T08:58:35;101558.56;;;7.37;62.29
79703;BME280;69172;52.352;5.006;2023-04-25T09:01:00;101569.63;;;7.57;63.15
79703;BME280;69172;52.352;5.006;2023-04-25T09:03:26;101579.44;;;7.63;63.01
79703;BME280;69172;52.352;5.006;2023-04-25T09:05:52;101573.75;;;7.55;60.97
79703;BME280;69172;52.352;5.006;2023-04-25T09:08:18;101574.94;;;7.70;58.29
79703;BME280;69172;52.352;5.006;2023-04-25T09:10:43;101586.19;;;7.94;59.32
79703;BME280;69172;52.352;5.006;2023-04-25T09:13:13;101594.59;;;8.03;55.54
79703;BME280;69172;52.352;5.006;2023-04-25T09:15:50;101587.50;;;7.89;55.24
79703;BME280;69172;52.352;5.006;2023-04-25T09:18:23;101595.59;;;8.05;55.04
79703;BME280;69172;52.352;5.006;2023-04-25T09:20:51;101593.44;;;8.00;53.56
79703;BME280;69172;52.352;5.006;2023-04-25T09:23:18;101593.03;;;8.05;55.31
79703;BME280;69172;52.352;5.006;2023-04-25T09:25:50;101588.03;;;8.07;55.01
79703;BME280;69172;52.352;5.006;2023-04-25T09:28:16;101596.72;;;8.09;55.57
79703;BME280;69172;52.352;5.006;2023-04-25T09:30:41;101592.78;;;8.02;55.82
79703;BME280;69172;52.352;5.006;2023-04-25T09:33:09;101595.47;;;7.82;56.24
79703;BME280;69172;52.352;5.006;2023-04-25T09:35:36;101595.00;;;7.76;56.28
79703;BME280;69172;52.352;5.006;2023-04-25T09:38:07;101589.38;;;7.70;55.85
79703;BME280;69172;52.352;5.006;2023-04-25T09:40:33;101599.38;;;7.67;56.02
79703;BME280;69172;52.352;5.006;2023-04-25T09:42:58;101598.28;;;7.85;55.34
79703;BME280;69172;52.352;5.006;2023-04-25T09:45:24;101605.19;;;7.86;54.31
79703;BME280;69172;52.352;5.006;2023-04-25T09:47:49;101599.78;;;7.93;54.72
79703;BME280;69172;52.352;5.006;2023-04-25T09:50:17;101607.91;;;7.99;54.06
79703;BME280;69172;52.352;5.006;2023-04-25T09:52:44;101605.84;;;8.05;52.17
79703;BME280;69172;52.352;5.006;2023-04-25T09:55:11;101615.56;;;8.09;52.43
79703;BME280;69172;52.352;5.006;2023-04-25T09:57:36;101613.34;;;8.35;54.12
79703;BME280;69172;52.352;5.006;2023-04-25T10:00:06;101616.72;;;8.24;52.56
79703;BME280;69172;52.352;5.006;2023-04-25T10:02:35;101616.47;;;8.31;52.33
79703;BME280;69172;52.352;5.006;2023-04-25T10:05:02;101621.44;;;8.52;52.00
79703;BME280;69172;52.352;5.006;2023-04-25T10:07:31;101622.47;;;8.65;53.17
79703;BME280;69172;52.352;5.006;2023-04-25T10:10:00;101656.72;;;8.22;60.23
79703;BME280;69172;52.352;5.006;2023-04-25T10:12:29;101638.28;;;7.73;62.79
79703;BME280;69172;52.352;5.006;2023-04-25T10:14:57;101642.00;;;7.35;63.00
79703;BME280;69172;52.352;5.006;2023-04-25T10:17:23;101657.41;;;7.04;64.82
79703;BME280;69172;52.352;5.006;2023-04-25T10:19:50;101650.03;;;6.87;67.25
79703;BME280;69172;52.352;5.006;2023-04-25T10:22:36;101680.41;;;6.54;67.09
79703;BME280;69172;52.352;5.006;2023-04-25T10:25:03;101679.25;;;6.30;67.22
79703;BME280;69172;52.352;5.006;2023-04-25T10:27:30;101675.25;;;6.14;67.11
79703;BME280;69172;52.352;5.006;2023-04-25T10:30:06;101664.66;;;6.29;68.56
79703;BME280;69172;52.352;5.006;2023-04-25T10:32:35;101667.66;;;6.54;68.20
79703;BME280;69172;52.352;5.006;2023-04-25T10:35:16;101651.81;;;6.68;60.33
79703;BME280;69172;52.352;5.006;2023-04-25T10:38:04;101663.31;;;6.83;61.01
79703;BME280;69172;52.352;5.006;2023-04-25T10:40:33;101657.81;;;6.89;60.95
79703;BME280;69172;52.352;5.006;2023-04-25T10:46:17;101662.25;;;7.11;57.33
79703;BME280;69172;52.352;5.006;2023-04-25T10:48:57;101656.84;;;7.29;58.38
79703;BME280;69172;52.352;5.006;2023-04-25T10:51:27;101655.41;;;7.52;59.83
79703;BME280;69172;52.352;5.006;2023-04-25T10:56:28;101655.31;;;7.94;54.65
79703;BME280;69172;52.352;5.006;2023-04-25T10:59:15;101663.84;;;8.36;53.83
79703;BME280;69172;52.352;5.006;2023-04-25T11:02:02;101679.03;;;8.45;53.29
79703;BME280;69172;52.352;5.006;2023-04-25T11:04:33;101706.25;;;7.69;60.07
79703;BME280;69172;52.352;5.006;2023-04-25T11:09:32;101680.53;;;6.96;63.67
79703;BME280;69172;52.352;5.006;2023-04-25T11:11:59;101680.44;;;6.94;63.74
79703;BME280;69172;52.352;5.006;2023-04-25T11:14:25;101679.91;;;7.08;62.05
79703;BME280;69172;52.352;5.006;2023-04-25T11:16:55;101683.22;;;7.17;62.12
79703;BME280;69172;52.352;5.006;2023-04-25T11:19:21;101674.63;;;7.27;61.87
79703;BME280;69172;52.352;5.006;2023-04-25T11:21:47;101668.03;;;7.51;61.38
79703;BME280;69172;52.352;5.006;2023-04-25T11:24:12;101664.94;;;7.65;61.61
79703;BME280;69172;52.352;5.006;2023-04-25T11:26:37;101678.47;;;8.06;57.93
79703;BME280;69172;52.352;5.006;2023-04-25T11:29:04;101662.34;;;7.97;49.70
79703;BME280;69172;52.352;5.006;2023-04-25T11:31:29;101666.25;;;8.13;47.75
79703;BME280;69172;52.352;5.006;2023-04-25T11:33:57;101671.94;;;8.31;46.27
79703;BME280;69172;52.352;5.006;2023-04-25T11:36:23;101672.47;;;8.49;46.67
79703;BME280;69172;52.352;5.006;2023-04-25T11:38:50;101688.31;;;8.55;46.66
79703;BME280;69172;52.352;5.006;2023-04-25T11:41:17;101683.00;;;8.63;45.97
79703;BME280;69172;52.352;5.006;2023-04-25T11:43:43;101671.25;;;8.77;47.64
79703;BME280;69172;52.352;5.006;2023-04-25T11:46:09;101685.00;;;9.01;48.45
79703;BME280;69172;52.352;5.006;2023-04-25T11:48:38;101679.59;;;8.74;49.08
79703;BME280;69172;52.352;5.006;2023-04-25T11:51:04;101686.63;;;8.77;50.85
79703;BME280;69172;52.352;5.006;2023-04-25T11:53:29;101684.63;;;8.84;49.85
79703;BME280;69172;52.352;5.006;2023-04-25T11:55:55;101680.41;;;8.85;50.39
79703;BME280;69172;52.352;5.006;2023-04-25T11:58:21;101696.78;;;8.87;49.98
79703;BME280;69172;52.352;5.006;2023-04-25T12:00:46;101687.53;;;8.89;50.87
79703;BME280;69172;52.352;5.006;2023-04-25T12:03:12;101695.50;;;9.04;51.32
79703;BME280;69172;52.352;5.006;2023-04-25T12:05:37;101691.50;;;9.07;51.50
79703;BME280;69172;52.352;5.006;2023-04-25T12:08:15;101700.59;;;8.92;49.96
79703;BME280;69172;52.352;5.006;2023-04-25T12:10:43;101711.50;;;8.34;45.94
79703;BME280;69172;52.352;5.006;2023-04-25T12:13:20;101702.97;;;8.46;47.31
79703;BME280;69172;52.352;5.006;2023-04-25T12:15:46;101704.13;;;8.49;47.38
79703;BME280;69172;52.352;5.006;2023-04-25T12:18:11;101693.44;;;8.55;47.36
79703;BME280;69172;52.352;5.006;2023-04-25T12:20:37;101689.88;;;8.86;47.79
79703;BME280;69172;52.352;5.006;2023-04-25T12:23:05;101699.53;;;9.12;45.14
79703;BME280;69172;52.352;5.006;2023-04-25T12:25:41;101695.06;;;9.09;44.76
79703;BME280;69172;52.352;5.006;2023-04-25T12:28:23;101693.19;;;9.30;45.32
79703;BME280;69172;52.352;5.006;2023-04-25T12:31:00;101705.03;;;9.63;44.26
79703;BME280;69172;52.352;5.006;2023-04-25T12:33:27;101686.41;;;9.53;45.96
79703;BME280;69172;52.352;5.006;2023-04-25T12:35:54;101705.25;;;9.31;45.03
79703;BME280;69172;52.352;5.006;2023-04-25T12:38:27;101734.63;;;9.34;45.02
79703;BME280;69172;52.352;5.006;2023-04-25T12:40:55;101689.84;;;9.08;45.31
79703;BME280;69172;52.352;5.006;2023-04-25T12:43:21;101711.94;;;9.17;46.68
79703;BME280;69172;52.352;5.006;2023-04-25T12:45:54;101713.13;;;8.99;48.01
79703;BME280;69172;52.352;5.006;2023-04-25T12:48:20;101713.25;;;9.12;47.90
79703;BME280;69172;52.352;5.006;2023-04-25T12:50:47;101725.84;;;9.09;46.41
79703;BME280;69172;52.352;5.006;2023-04-25T12:53:19;101734.06;;;8.93;45.46
79703;BME280;69172;52.352;5.006;2023-04-25T12:55:45;101722.34;;;8.97;48.05
79703;BME280;69172;52.352;5.006;2023-04-25T12:58:14;101719.69;;;8.95;48.65
79703;BME280;69172;52.352;5.006;2023-04-25T13:00:39;101715.56;;;8.97;49.71
79703;BME280;69172;52.352;5.006;2023-04-25T13:03:04;101711.25;;;9.20;48.31
79703;BME280;69172;52.352;5.006;2023-04-25T13:05:30;101711.59;;;9.24;47.42
79703;BME280;69172;52.352;5.006;2023-04-25T13:07:56;101717.97;;;9.18;47.69